Indian Springs, Nevada Weather observations

Data are for observation ending at time listed.
 Day   Time    Ave.   Ave.  Ave.  Vector   Max.   Stn.    Total    Solar   Ave.  
  of    of     Air    Rel.  Wind   Wind    Wind   Baro.  Precip.   Rad.    Soil  
Year   Day     Temp.  Hum.  Speed  Dir.    Gust   Pres.                    Temp. 
2015   (PST)    F      %     mph   deg.    mph     mb.     in.     W/m2     F   
------------------------------------------------------------------------------
  87   13:00   82.1    11    2.1   307      6.1   910.3    0.00     909    74.4
  87   13:10   82.7    11    1.9   319      4.2   910.3    0.00     912    74.8
  87   13:20   83.0    11    2.4   309      5.9   910.0    0.00     879    75.3
  87   13:30   83.0    11    2.6   299      6.4   910.0    0.00     862    75.8
  87   13:40   83.3    10    2.2   319      6.1   909.8    0.00     863    76.2
  87   13:50   84.6    10    2.0    20      5.0   909.7    0.00     834    76.7
  87   14:00   85.0    10    1.9   326      5.6   909.6    0.00     809    77.1
  87   14:10   83.8    10    2.3   232      5.5   909.4    0.00     783    77.6
  87   14:20   84.4    10    1.6   141      5.0   909.2    0.00     757    78.0
  87   14:30   84.5    10    2.1   171      4.9   909.2    0.00     726    78.4
  87   14:40   85.4    10    1.4   108      4.8   909.0    0.00     350    78.8
  87   14:50   85.2    10    2.1    29      4.5   908.9    0.00      52    79.2
  87   15:00   85.3    10    2.4   330      5.9   908.6    0.00     532    79.6
  87   15:10   85.5    10    2.3    10      4.2   908.7    0.00     560    80.0
  87   15:20   85.3    10    2.6   200      5.3   908.6    0.00     552    80.3
  87   15:30   84.9    10    3.8   175      7.9   908.7    0.00     553    80.5
  87   15:40   85.6    10    2.0    72      6.0   908.5    0.00     519    80.6
  87   15:50   86.4    10    1.9   320      4.6   908.4    0.00     482    80.7
  87   16:00   86.8     9    1.8   307      8.6   908.7    0.00     450    80.8
  87   16:10   85.9     8    3.8   301     12.1   908.4    0.00     420    80.9
  87   16:20   86.0     8    2.9   313      7.7   908.2    0.00     384    81.0
  87   16:30   85.5     8    2.7   338      7.1   908.2    0.00     344    81.1
  87   16:40   85.2     8    2.2   359      8.0   908.1    0.00     305    81.1
  87   16:50   84.7     8    3.3   349     11.5   908.1    0.00     268    81.2
  87   17:00   83.9     8    2.5   327      7.2   908.0    0.00     228    81.2
  87   17:10   83.6     8    4.0   300     11.0   907.9    0.00     142    81.2
  87   17:20   82.9     8    4.2   298      9.3   907.8    0.00      83    81.2
  87   17:30   82.3     8    4.6   294      9.6   907.7    0.00      64    81.1
  87   17:40   81.6     8    4.8   298     11.8   907.7    0.00      47    81.0
  87   17:50   80.9     8    4.7   300      9.6   907.3    0.00      19    80.9
  87   18:00   80.2     8    4.7   285      9.2   907.5    0.00      11    80.8
  87   18:10   79.5     9    3.8   275      7.5   907.3    0.00       5    80.6
  87   18:20   78.6     9    4.6   265      9.7   907.4    0.00       3    80.5
  87   18:30   77.9     9    4.5   270      8.8   907.2    0.00       0    80.3
  87   18:40   77.9     9    5.1   247     10.7   907.2    0.00       0    80.0
  87   18:50   78.4     9    5.2   251     10.2   907.2    0.00       0    79.8
  87   19:00   77.4    10    5.3   240      9.1   907.3    0.00       0    79.6
  87   19:10   76.0    11    2.1   254      6.1   907.4    0.00       0    79.4
  87   19:20   74.8    12    2.1   255      5.3   907.2    0.00       0    79.1
  87   19:30   75.2    11    2.0   283      3.9   907.3    0.00       0    78.9
  87   19:40   73.8    11    2.3   293      5.7   907.4    0.00       0    78.7
  87   19:50   73.0    12    1.5   274      3.9   907.3    0.00       0    78.4
  87   20:00   72.5    12    1.3   305      3.6   907.5    0.00       0    78.2
  87   20:10   71.4    12    0.5    69      1.9   907.3    0.00       0    78.0
  87   20:20   69.7    12    0.8    75      1.8   907.4    0.00       0    77.7
  87   20:30   69.3    12    1.1    99      2.9   907.3    0.00       0    77.5
  87   20:40   68.6    13    0.4   139      1.4   907.4    0.00       0    77.3
  87   20:50   67.9    13    0.2   182      1.0   907.3    0.00       0    77.0
  87   21:00   67.5    13    0.3   194      1.5   907.3    0.00       0    76.7
  87   21:10   67.2    13    0.4   196      1.7   907.3    0.00       0    76.5
  87   21:20   66.6    14    0.6   217      2.3   907.4    0.00       0    76.3
  87   21:30   66.0    13    1.4   234      3.1   907.3    0.00       0    76.0
  87   21:40   65.2    14    0.9   224      1.9   907.5    0.00       0    75.8
  87   21:50   64.8    14    1.7   236      2.8   907.2    0.00       0    75.5
  87   22:00   65.1    14    0.7   224      1.5   907.4    0.00       0    75.3
  87   22:10   64.3    16    0.0     0      0.0   907.3    0.00       0    75.1
  87   22:20   63.0    17    0.1   146      1.3   907.4    0.00       0    74.9
  87   22:30   62.3    18    1.2   320      2.9   907.3    0.00       0    74.6
  87   22:40   63.6    16    2.0   308      3.6   907.3    0.00       0    74.4
  87   22:50   63.2    15    0.6   234      1.6   907.3    0.00       0    74.2
  87   23:00   62.2    16    0.9   235      3.4   907.2    0.00       0    74.0
  87   23:10   61.7    16    1.1   218      2.4   907.3    0.00       0    73.8
  87   23:20   61.3    16    1.3   313      3.0   907.3    0.00       0    73.6
  87   23:30   61.9    14    1.5   236      4.2   907.3    0.00       0    73.4
  87   23:40   60.6    16    0.9   179      2.1   907.5    0.00       0    73.2
  87   23:50   61.0    14    1.5   240      2.2   907.4    0.00       0    73.0
  88    0:00   61.5    14    1.5   255      2.7   907.5    0.00       0    72.8
  88    0:10   60.3    15    1.8   240      2.9   907.5    0.00       0    72.6
  88    0:20   58.7    17    2.2   232      3.4   907.3    0.00       0    72.4
  88    0:30   59.8    15    1.9   241      2.8   907.3    0.00       0    72.2
  88    0:40   59.5    15    2.6   240      3.9   907.1    0.00       0    72.0
  88    0:50   59.9    15    2.5   231      3.9   907.2    0.00       0    71.8
  88    1:00   59.1    16    3.0   238      4.7   907.2    0.00       0    71.6
  88    1:10   60.1    16    2.6   250      4.7   907.1    0.00       0    71.4
  88    1:20   60.5    15    0.8   284      1.8   907.3    0.00       0    71.2
  88    1:30   61.0    14    1.8   254      3.1   907.2    0.00       0    71.1
  88    1:40   59.6    17    1.2   126      3.5   907.1    0.00       0    70.9
  88    1:50   55.9    21    0.4   120      2.3   907.2    0.00       0    70.7
  88    2:00   55.2    22    0.2   168      1.1   907.1    0.00       0    70.6
  88    2:10   54.1    24    0.5    39      2.0   906.8    0.00       0    70.4
  88    2:20   53.7    24    0.6   167      1.8   906.9    0.00       0    70.2
  88    2:30   53.2    24    0.6    72      1.8   906.8    0.00       0    70.1
  88    2:40   53.5    24    0.4   218      1.5   906.7    0.00       0    69.9
  88    2:50   54.6    22    3.5   232      5.6   906.7    0.00       0    69.7
  88    3:00   56.4    18    3.0   229      5.7   906.7    0.00       0    69.5
  88    3:10   60.9    14    2.8   226      4.9   906.8    0.00       0    69.4
  88    3:20   61.8    14    3.0   236      5.9   906.9    0.00       0    69.2
  88    3:30   59.6    16    2.1   241      3.5   907.0    0.00       0    69.0
  88    3:40   59.4    16    1.7   235      2.7   907.2    0.00       0    68.9
  88    3:50   59.5    16    1.2   234      2.2   907.1    0.00       0    68.7
  88    4:00   59.4    17    1.1   232      2.0   907.2    0.00       0    68.6
  88    4:10   59.0    18    1.5   234      2.6   907.1    0.00       0    68.5
  88    4:20   57.1    19    1.4   236      3.1   907.1    0.00       0    68.3
  88    4:30   56.1    20    1.2   233      2.2   907.1    0.00       0    68.2
  88    4:40   54.9    21    1.4   238      2.3   907.1    0.00       0    68.1
  88    4:50   54.4    22    0.4   228      1.4   907.2    0.00       0    68.0
  88    5:00   53.3    24    1.0    91      2.0   907.4    0.00       0    67.8
  88    5:10   52.5    26    0.5    99      1.6   907.3    0.00       0    67.7
  88    5:20   52.6    26    0.8    42      2.3   907.2    0.00       0    67.6
  88    5:30   52.8    25    0.2   297      1.2   907.3    0.00       0    67.4
  88    5:40   52.6    26    0.3   350      1.8   907.3    0.00       5    67.3
  88    5:50   52.8    25    1.6   280      2.6   907.5    0.00      11    67.2
  88    6:00   52.8    24    0.7   174      1.8   907.7    0.00      33    67.0
  88    6:10   53.3    26    0.6    88      2.4   907.9    0.00      78    66.9
  88    6:20   55.1    26    0.7   102      2.0   907.9    0.00     122    66.7
  88    6:30   56.1    24    0.3   117      1.8   908.2    0.00     162    66.6
  88    6:40   58.6    22    0.6   208      3.9   908.5    0.00     194    66.4
  88    6:50   59.2    22    1.1   277      3.4   908.6    0.00     160    66.3
  88    7:00   59.9    22    0.2   290      1.4   908.7    0.00     191    66.2
  88    7:10   62.5    21    0.3    42      1.1   909.0    0.00     311    66.1
  88    7:20   65.0    19    0.3    74      1.0   909.0    0.00     355    66.1
  88    7:30   66.2    18    0.6   222      1.5   909.6    0.00     393    66.1
  88    7:40   67.7    16    0.6    73      2.0   909.9    0.00     435    66.1
  88    7:50   69.0    15    0.8    22      2.4   910.3    0.00     481    66.2
  88    8:00   67.6    15    1.1    27      3.0   910.5    0.00     522    66.3
  88    8:10   67.9    14    1.0   338      2.3   910.9    0.00     547    66.4
  88    8:20   68.4    14    0.9   295      2.6   911.1    0.00     582    66.6
  88    8:30   69.1    14    1.0   307      2.5   911.4    0.00     613    66.8
  88    8:40   71.2    13    0.8   353      2.0   911.6    0.00     651    67.0
  88    8:50   70.6    13    1.2   294      2.9   911.6    0.00     687    67.2
  88    9:00   72.8    13    0.9    42      2.6   911.9    0.00     714    67.5
  88    9:10   74.0    12    1.1    21      3.4   912.1    0.00     756    67.8
  88    9:20   74.8    12    1.0   356      3.8   912.2    0.00     779    68.2
  88    9:30   73.8    12    1.9   319      3.6   912.2    0.00     810    68.6
  88    9:40   74.8    12    1.5   346      6.1   912.4    0.00     835    69.0
  88    9:50   75.7    12    1.8    29      5.4   912.5    0.00     862    69.4
  88   10:00   75.9    12    1.8     9      5.9   912.5    0.00     882    69.8
  88   10:10   76.1    12    2.5    20      5.1   912.4    0.00     908    70.3
  88   10:20   76.3    12    1.6    31      4.8   912.7    0.00     929    70.7
  88   10:30   77.4    11    1.7    53      3.9   912.4    0.00     955    71.2
  88   10:40   78.0    11    1.4    20      5.1   912.4    0.00     873    71.7
  88   10:50   77.5    11    2.5   295      6.6   912.4    0.00     990    72.1
  88   11:00   77.4    11    1.9   315      5.4   912.3    0.00     982    72.5
  88   11:10   78.7    11    1.9    10      4.4   912.1    0.00     979    72.8
  88   11:20   79.2    11    2.4    45      6.5   912.0    0.00     981    73.1
  88   11:30   79.6    11    2.8    37      6.8   911.9    0.00     993    73.3
  88   11:40   79.8    11    3.0    29      7.6   911.7    0.00     998    73.5
  88   11:50   80.9    10    2.8    44      8.1   911.6    0.00     993    73.6
  88   12:00   81.5    10    3.1    92      8.8   911.4    0.00     992    73.8
  88   12:10   81.8    10    2.4    68      7.9   911.4    0.00     987    73.8
  88   12:20   81.8    10    3.4    59      7.6   911.2    0.00     987    74.0
  88   12:30   82.0    10    4.2    48      9.5   911.2    0.00     977    74.3
  88   12:40   82.0    10    2.8    47      5.3   911.1    0.00     972    74.6
  88   12:50   82.3    10    3.5    72      9.1   910.9    0.00     936    75.0

Return to Indian Springs, Nevada graphs page.


Western Regional Climate Center,wrcc@dri.edu